sensor_id;sensor_type;location;lat;lon;timestamp;temperature;humidity
34434;DHT22;34290;48.562;13.384;2023-03-31T00:01:37;3.80;99.90
34434;DHT22;34290;48.562;13.384;2023-03-31T00:04:06;3.70;99.90
34434;DHT22;34290;48.562;13.384;2023-03-31T00:06:36;3.80;99.90
34434;DHT22;34290;48.562;13.384;2023-03-31T00:09:04;3.90;99.90
34434;DHT22;34290;48.562;13.384;2023-03-31T00:13:58;3.90;99.90
34434;DHT22;34290;48.562;13.384;2023-03-31T00:16:27;3.80;99.90
34434;DHT22;34290;48.562;13.384;2023-03-31T00:18:54;3.80;99.90
34434;DHT22;34290;48.562;13.384;2023-03-31T00:21:22;3.70;99.90
34434;DHT22;34290;48.562;13.384;2023-03-31T00:23:59;3.60;99.90
34434;DHT22;34290;48.562;13.384;2023-03-31T00:26:27;3.50;99.90
34434;DHT22;34290;48.562;13.384;2023-03-31T00:28:55;3.40;99.90
34434;DHT22;34290;48.562;13.384;2023-03-31T00:31:23;3.40;99.90
34434;DHT22;34290;48.562;13.384;2023-03-31T00:33:53;3.60;99.90
34434;DHT22;34290;48.562;13.384;2023-03-31T00:36:21;3.80;99.90
34434;DHT22;34290;48.562;13.384;2023-03-31T00:38:53;3.90;99.90
34434;DHT22;34290;48.562;13.384;2023-03-31T00:41:21;3.90;99.90
34434;DHT22;34290;48.562;13.384;2023-03-31T00:44:04;3.80;99.90
34434;DHT22;34290;48.562;13.384;2023-03-31T00:46:34;3.60;99.90
34434;DHT22;34290;48.562;13.384;2023-03-31T00:49:09;3.40;99.90
34434;DHT22;34290;48.562;13.384;2023-03-31T00:54:06;3.10;99.90
34434;DHT22;34290;48.562;13.384;2023-03-31T00:56:35;3.10;99.90
34434;DHT22;34290;48.562;13.384;2023-03-31T00:59:06;3.00;99.90
34434;DHT22;34290;48.562;13.384;2023-03-31T01:01:35;3.10;99.90
34434;DHT22;34290;48.562;13.384;2023-03-31T01:04:06;3.20;99.90
34434;DHT22;34290;48.562;13.384;2023-03-31T01:06:36;3.20;99.90
34434;DHT22;34290;48.562;13.384;2023-03-31T01:09:05;3.10;99.90
34434;DHT22;34290;48.562;13.384;2023-03-31T01:11:33;3.00;99.90
34434;DHT22;34290;48.562;13.384;2023-03-31T01:18:56;3.00;99.90
34434;DHT22;34290;48.562;13.384;2023-03-31T01:21:55;2.90;99.90
34434;DHT22;34290;48.562;13.384;2023-03-31T01:27:41;2.90;99.90
34434;DHT22;34290;48.562;13.384;2023-03-31T01:33:59;2.90;99.90
34434;DHT22;34290;48.562;13.384;2023-03-31T01:40:14;2.90;99.90
34434;DHT22;34290;48.562;13.384;2023-03-31T01:42:47;2.80;99.90
34434;DHT22;34290;48.562;13.384;2023-03-31T01:45:23;2.90;99.90
34434;DHT22;34290;48.562;13.384;2023-03-31T01:47:55;2.80;99.90
34434;DHT22;34290;48.562;13.384;2023-03-31T01:50:28;2.80;99.90
34434;DHT22;34290;48.562;13.384;2023-03-31T01:53:00;2.80;99.90
34434;DHT22;34290;48.562;13.384;2023-03-31T01:55:34;2.80;99.90
34434;DHT22;34290;48.562;13.384;2023-03-31T01:58:08;2.80;99.90
34434;DHT22;34290;48.562;13.384;2023-03-31T02:00:40;2.70;99.90
34434;DHT22;34290;48.562;13.384;2023-03-31T02:03:13;2.60;99.90
34434;DHT22;34290;48.562;13.384;2023-03-31T02:05:45;2.60;99.90
34434;DHT22;34290;48.562;13.384;2023-03-31T02:08:14;2.60;99.90
34434;DHT22;34290;48.562;13.384;2023-03-31T02:10:44;2.50;99.90
34434;DHT22;34290;48.562;13.384;2023-03-31T02:13:13;2.40;99.90
34434;DHT22;34290;48.562;13.384;2023-03-31T02:15:44;2.40;99.90
34434;DHT22;34290;48.562;13.384;2023-03-31T02:18:16;2.50;99.90
34434;DHT22;34290;48.562;13.384;2023-03-31T02:20:47;2.50;99.90
34434;DHT22;34290;48.562;13.384;2023-03-31T02:23:18;2.60;99.90
34434;DHT22;34290;48.562;13.384;2023-03-31T02:25:50;2.50;99.90
34434;DHT22;34290;48.562;13.384;2023-03-31T02:28:20;2.40;99.90
34434;DHT22;34290;48.562;13.384;2023-03-31T02:30:52;2.40;99.90
34434;DHT22;34290;48.562;13.384;2023-03-31T02:33:24;2.50;99.90
34434;DHT22;34290;48.562;13.384;2023-03-31T02:35:51;2.40;99.90
34434;DHT22;34290;48.562;13.384;2023-03-31T02:38:18;2.40;99.90
34434;DHT22;34290;48.562;13.384;2023-03-31T02:43:14;2.40;99.90
34434;DHT22;34290;48.562;13.384;2023-03-31T02:45:45;2.40;99.90
34434;DHT22;34290;48.562;13.384;2023-03-31T02:48:17;2.30;99.90
34434;DHT22;34290;48.562;13.384;2023-03-31T02:51:16;2.20;99.90
34434;DHT22;34290;48.562;13.384;2023-03-31T02:54:03;2.10;99.90
34434;DHT22;34290;48.562;13.384;2023-03-31T02:56:47;2.20;99.90
34434;DHT22;34290;48.562;13.384;2023-03-31T02:59:32;2.10;99.90
34434;DHT22;34290;48.562;13.384;2023-03-31T03:02:13;2.10;99.90
34434;DHT22;34290;48.562;13.384;2023-03-31T03:12:32;2.50;99.90
34434;DHT22;34290;48.562;13.384;2023-03-31T03:20:04;2.50;99.90
34434;DHT22;34290;48.562;13.384;2023-03-31T03:22:33;2.60;99.90
34434;DHT22;34290;48.562;13.384;2023-03-31T03:27:28;2.70;99.90
34434;DHT22;34290;48.562;13.384;2023-03-31T03:32:23;2.50;99.90
34434;DHT22;34290;48.562;13.384;2023-03-31T03:39:54;2.10;99.90
34434;DHT22;34290;48.562;13.384;2023-03-31T03:44:48;2.40;99.90
34434;DHT22;34290;48.562;13.384;2023-03-31T03:47:15;2.40;99.90
34434;DHT22;34290;48.562;13.384;2023-03-31T03:49:44;2.40;99.90
34434;DHT22;34290;48.562;13.384;2023-03-31T03:52:13;2.40;99.90
34434;DHT22;34290;48.562;13.384;2023-03-31T03:54:40;2.40;99.90
34434;DHT22;34290;48.562;13.384;2023-03-31T03:57:07;2.90;99.90
34434;DHT22;34290;48.562;13.384;2023-03-31T03:59:37;2.40;99.90
34434;DHT22;34290;48.562;13.384;2023-03-31T04:02:04;2.30;99.90
34434;DHT22;34290;48.562;13.384;2023-03-31T04:04:31;2.30;99.90
34434;DHT22;34290;48.562;13.384;2023-03-31T04:09:27;2.30;99.90
34434;DHT22;34290;48.562;13.384;2023-03-31T04:14:21;2.30;99.90
34434;DHT22;34290;48.562;13.384;2023-03-31T04:16:48;2.20;99.90
34434;DHT22;34290;48.562;13.384;2023-03-31T04:19:15;2.00;99.90
34434;DHT22;34290;48.562;13.384;2023-03-31T04:26:41;2.20;99.90
34434;DHT22;34290;48.562;13.384;2023-03-31T04:31:37;2.40;99.90
34434;DHT22;34290;48.562;13.384;2023-03-31T04:34:07;2.40;99.90
34434;DHT22;34290;48.562;13.384;2023-03-31T04:36:37;2.50;99.90
34434;DHT22;34290;48.562;13.384;2023-03-31T04:39:07;2.50;99.90
34434;DHT22;34290;48.562;13.384;2023-03-31T04:44:04;2.50;99.90
34434;DHT22;34290;48.562;13.384;2023-03-31T04:46:31;2.70;99.90
34434;DHT22;34290;48.562;13.384;2023-03-31T04:53:55;2.80;99.90
34434;DHT22;34290;48.562;13.384;2023-03-31T04:56:22;2.80;99.90
34434;DHT22;34290;48.562;13.384;2023-03-31T04:58:50;2.90;99.90
34434;DHT22;34290;48.562;13.384;2023-03-31T05:03:45;2.80;99.90
34434;DHT22;34290;48.562;13.384;2023-03-31T05:06:15;2.80;99.90
34434;DHT22;34290;48.562;13.384;2023-03-31T05:08:43;2.80;99.90
34434;DHT22;34290;48.562;13.384;2023-03-31T05:13:37;2.90;99.90
34434;DHT22;34290;48.562;13.384;2023-03-31T05:16:10;2.80;99.90
34434;DHT22;34290;48.562;13.384;2023-03-31T05:18:39;2.90;99.90
34434;DHT22;34290;48.562;13.384;2023-03-31T05:21:10;3.00;99.90
34434;DHT22;34290;48.562;13.384;2023-03-31T05:23:37;3.10;99.90
34434;DHT22;34290;48.562;13.384;2023-03-31T05:28:32;3.40;99.90
34434;DHT22;34290;48.562;13.384;2023-03-31T05:33:29;3.60;99.90
34434;DHT22;34290;48.562;13.384;2023-03-31T05:35:56;3.60;99.90
34434;DHT22;34290;48.562;13.384;2023-03-31T05:40:54;3.60;99.90
34434;DHT22;34290;48.562;13.384;2023-03-31T05:45:48;3.80;99.90
34434;DHT22;34290;48.562;13.384;2023-03-31T05:48:15;4.00;99.90
34434;DHT22;34290;48.562;13.384;2023-03-31T05:50:44;4.00;99.90
34434;DHT22;34290;48.562;13.384;2023-03-31T05:53:11;3.90;99.90
34434;DHT22;34290;48.562;13.384;2023-03-31T05:55:38;4.00;99.90
34434;DHT22;34290;48.562;13.384;2023-03-31T05:58:05;4.10;99.90
34434;DHT22;34290;48.562;13.384;2023-03-31T06:03:00;4.20;99.90
34434;DHT22;34290;48.562;13.384;2023-03-31T06:07:57;4.20;99.90
34434;DHT22;34290;48.562;13.384;2023-03-31T06:10:24;4.70;99.90
34434;DHT22;34290;48.562;13.384;2023-03-31T06:12:51;4.20;99.90
34434;DHT22;34290;48.562;13.384;2023-03-31T06:20:12;4.40;99.90
34434;DHT22;34290;48.562;13.384;2023-03-31T06:25:09;4.50;99.90
34434;DHT22;34290;48.562;13.384;2023-03-31T06:27:35;4.60;99.90
34434;DHT22;34290;48.562;13.384;2023-03-31T06:30:03;4.70;99.90
34434;DHT22;34290;48.562;13.384;2023-03-31T06:34:57;4.70;99.90
34434;DHT22;34290;48.562;13.384;2023-03-31T06:39:51;4.90;99.90
34434;DHT22;34290;48.562;13.384;2023-03-31T06:42:20;4.90;99.90
34434;DHT22;34290;48.562;13.384;2023-03-31T06:44:47;4.90;99.90
34434;DHT22;34290;48.562;13.384;2023-03-31T06:47:13;4.80;99.90
34434;DHT22;34290;48.562;13.384;2023-03-31T06:52:08;4.80;99.90
34434;DHT22;34290;48.562;13.384;2023-03-31T06:57:02;5.00;99.90
34434;DHT22;34290;48.562;13.384;2023-03-31T06:59:30;5.10;99.90
34434;DHT22;34290;48.562;13.384;2023-03-31T07:01:57;5.20;99.90
34434;DHT22;34290;48.562;13.384;2023-03-31T07:04:24;5.20;99.90
34434;DHT22;34290;48.562;13.384;2023-03-31T07:09:18;5.40;99.90
34434;DHT22;34290;48.562;13.384;2023-03-31T07:11:48;5.40;99.90
34434;DHT22;34290;48.562;13.384;2023-03-31T07:14:15;5.40;99.90
34434;DHT22;34290;48.562;13.384;2023-03-31T07:16:46;5.50;99.90
34434;DHT22;34290;48.562;13.384;2023-03-31T07:19:15;5.50;99.90
34434;DHT22;34290;48.562;13.384;2023-03-31T07:21:42;5.50;99.90
34434;DHT22;34290;48.562;13.384;2023-03-31T07:24:09;5.40;99.90
34434;DHT22;34290;48.562;13.384;2023-03-31T07:29:03;5.70;99.90
34434;DHT22;34290;48.562;13.384;2023-03-31T07:31:30;5.80;99.90
34434;DHT22;34290;48.562;13.384;2023-03-31T07:34:00;5.80;99.90
34434;DHT22;34290;48.562;13.384;2023-03-31T07:36:27;5.90;99.90
34434;DHT22;34290;48.562;13.384;2023-03-31T07:41:21;6.10;99.90
34434;DHT22;34290;48.562;13.384;2023-03-31T07:43:49;6.40;99.90
34434;DHT22;34290;48.562;13.384;2023-03-31T07:46:18;7.10;99.90
34434;DHT22;34290;48.562;13.384;2023-03-31T07:48:46;7.50;99.90
34434;DHT22;34290;48.562;13.384;2023-03-31T07:51:16;7.60;99.90
34434;DHT22;34290;48.562;13.384;2023-03-31T07:53:43;7.40;99.90
34434;DHT22;34290;48.562;13.384;2023-03-31T07:56:10;7.30;99.90
34434;DHT22;34290;48.562;13.384;2023-03-31T07:58:38;7.20;99.90
34434;DHT22;34290;48.562;13.384;2023-03-31T08:03:32;7.10;99.90
34434;DHT22;34290;48.562;13.384;2023-03-31T08:05:59;7.10;99.90
34434;DHT22;34290;48.562;13.384;2023-03-31T08:08:28;7.20;99.90
34434;DHT22;34290;48.562;13.384;2023-03-31T08:10:55;7.20;99.90
34434;DHT22;34290;48.562;13.384;2023-03-31T08:13:22;7.30;99.90
34434;DHT22;34290;48.562;13.384;2023-03-31T08:15:49;7.30;99.90
34434;DHT22;34290;48.562;13.384;2023-03-31T08:18:16;7.20;99.90
34434;DHT22;34290;48.562;13.384;2023-03-31T08:23:10;7.20;99.90
34434;DHT22;34290;48.562;13.384;2023-03-31T08:25:38;7.20;99.90
34434;DHT22;34290;48.562;13.384;2023-03-31T08:30:36;7.40;99.90
34434;DHT22;34290;48.562;13.384;2023-03-31T08:33:03;7.40;99.90
34434;DHT22;34290;48.562;13.384;2023-03-31T08:35:30;7.60;99.90
34434;DHT22;34290;48.562;13.384;2023-03-31T08:37:57;7.60;99.90
34434;DHT22;34290;48.562;13.384;2023-03-31T08:40:27;7.60;99.90
34434;DHT22;34290;48.562;13.384;2023-03-31T08:42:59;7.60;99.90
34434;DHT22;34290;48.562;13.384;2023-03-31T08:45:30;7.70;99.90
34434;DHT22;34290;48.562;13.384;2023-03-31T08:48:01;7.70;99.90
34434;DHT22;34290;48.562;13.384;2023-03-31T08:50:31;7.70;99.90
34434;DHT22;34290;48.562;13.384;2023-03-31T08:53:04;7.70;99.90
34434;DHT22;34290;48.562;13.384;2023-03-31T08:55:36;7.70;99.90
34434;DHT22;34290;48.562;13.384;2023-03-31T08:58:15;7.60;99.90
34434;DHT22;34290;48.562;13.384;2023-03-31T09:00:48;7.60;99.90
34434;DHT22;34290;48.562;13.384;2023-03-31T09:05:50;7.90;99.90
34434;DHT22;34290;48.562;13.384;2023-03-31T09:08:31;8.00;99.90
34434;DHT22;34290;48.562;13.384;2023-03-31T09:16:51;8.00;99.90
34434;DHT22;34290;48.562;13.384;2023-03-31T09:34:23;8.10;99.90
34434;DHT22;34290;48.562;13.384;2023-03-31T09:36:50;8.30;99.90
34434;DHT22;34290;48.562;13.384;2023-03-31T09:39:18;8.70;99.90
34434;DHT22;34290;48.562;13.384;2023-03-31T09:44:26;8.50;99.90
34434;DHT22;34290;48.562;13.384;2023-03-31T09:46:54;8.50;99.90
34434;DHT22;34290;48.562;13.384;2023-03-31T09:49:24;8.60;99.90
34434;DHT22;34290;48.562;13.384;2023-03-31T09:52:00;8.60;99.90
34434;DHT22;34290;48.562;13.384;2023-03-31T09:54:34;8.70;99.90
34434;DHT22;34290;48.562;13.384;2023-03-31T09:57:12;8.70;99.90
34434;DHT22;34290;48.562;13.384;2023-03-31T09:59:40;8.60;99.90
34434;DHT22;34290;48.562;13.384;2023-03-31T10:02:33;8.70;99.90
34434;DHT22;34290;48.562;13.384;2023-03-31T10:05:01;8.80;99.90
34434;DHT22;34290;48.562;13.384;2023-03-31T10:07:29;8.90;99.90
34434;DHT22;34290;48.562;13.384;2023-03-31T10:12:25;8.80;99.90
34434;DHT22;34290;48.562;13.384;2023-03-31T10:15:02;8.90;99.90
34434;DHT22;34290;48.562;13.384;2023-03-31T10:17:43;8.90;99.90
34434;DHT22;34290;48.562;13.384;2023-03-31T10:20:19;9.00;99.90
34434;DHT22;34290;48.562;13.384;2023-03-31T10:22:47;9.10;99.90
34434;DHT22;34290;48.562;13.384;2023-03-31T10:25:16;9.10;99.90
34434;DHT22;34290;48.562;13.384;2023-03-31T10:27:45;9.10;99.90
34434;DHT22;34290;48.562;13.384;2023-03-31T10:30:20;9.00;99.90
34434;DHT22;34290;48.562;13.384;2023-03-31T10:32:48;9.00;99.90
34434;DHT22;34290;48.562;13.384;2023-03-31T10:35:23;9.20;99.90
34434;DHT22;34290;48.562;13.384;2023-03-31T10:37:54;9.40;99.90
34434;DHT22;34290;48.562;13.384;2023-03-31T10:40:24;10.10;99.90
34434;DHT22;34290;48.562;13.384;2023-03-31T10:43:02;10.70;99.90
34434;DHT22;34290;48.562;13.384;2023-03-31T10:45:36;11.20;99.90
34434;DHT22;34290;48.562;13.384;2023-03-31T10:48:04;11.50;99.90
34434;DHT22;34290;48.562;13.384;2023-03-31T10:50:34;11.90;99.90
34434;DHT22;34290;48.562;13.384;2023-03-31T10:53:03;13.20;99.90
34434;DHT22;34290;48.562;13.384;2023-03-31T10:55:38;14.50;99.90
34434;DHT22;34290;48.562;13.384;2023-03-31T10:58:20;15.00;99.90
34434;DHT22;34290;48.562;13.384;2023-03-31T11:01:00;16.00;99.90
34434;DHT22;34290;48.562;13.384;2023-03-31T11:03:44;16.10;99.90
34434;DHT22;34290;48.562;13.384;2023-03-31T11:06:19;16.20;99.90
34434;DHT22;34290;48.562;13.384;2023-03-31T11:08:57;16.30;99.90
34434;DHT22;34290;48.562;13.384;2023-03-31T11:11:41;16.00;99.90
34434;DHT22;34290;48.562;13.384;2023-03-31T11:14:16;16.20;99.90
34434;DHT22;34290;48.562;13.384;2023-03-31T11:16:53;15.80;99.90
34434;DHT22;34290;48.562;13.384;2023-03-31T11:19:29;15.80;99.90
34434;DHT22;34290;48.562;13.384;2023-03-31T11:22:08;15.80;99.90
34434;DHT22;34290;48.562;13.384;2023-03-31T11:24:59;15.40;99.90
34434;DHT22;34290;48.562;13.384;2023-03-31T11:27:38;15.70;99.90
34434;DHT22;34290;48.562;13.384;2023-03-31T11:30:09;16.50;99.90
34434;DHT22;34290;48.562;13.384;2023-03-31T11:32:57;16.60;99.90
34434;DHT22;34290;48.562;13.384;2023-03-31T11:35:48;16.20;99.90
34434;DHT22;34290;48.562;13.384;2023-03-31T11:38:43;16.90;99.90
34434;DHT22;34290;48.562;13.384;2023-03-31T11:41:14;17.90;99.90
34434;DHT22;34290;48.562;13.384;2023-03-31T11:43:46;17.80;99.90
34434;DHT22;34290;48.562;13.384;2023-03-31T11:46:18;17.60;99.90
34434;DHT22;34290;48.562;13.384;2023-03-31T11:48:51;17.30;99.90
34434;DHT22;34290;48.562;13.384;2023-03-31T11:51:25;17.30;99.90
34434;DHT22;34290;48.562;13.384;2023-03-31T11:53:55;17.00;99.90
34434;DHT22;34290;48.562;13.384;2023-03-31T11:56:24;16.90;99.90
34434;DHT22;34290;48.562;13.384;2023-03-31T11:58:57;16.20;99.90
34434;DHT22;34290;48.562;13.384;2023-03-31T12:01:29;15.80;99.90
34434;DHT22;34290;48.562;13.384;2023-03-31T12:04:03;15.40;99.90
34434;DHT22;34290;48.562;13.384;2023-03-31T12:06:34;15.30;99.90
34434;DHT22;34290;48.562;13.384;2023-03-31T12:09:10;15.20;99.90
34434;DHT22;34290;48.562;13.384;2023-03-31T12:11:43;14.90;99.90
34434;DHT22;34290;48.562;13.384;2023-03-31T12:14:28;15.10;99.90
34434;DHT22;34290;48.562;13.384;2023-03-31T12:17:01;15.00;99.90
34434;DHT22;34290;48.562;13.384;2023-03-31T12:19:39;14.90;99.90
34434;DHT22;34290;48.562;13.384;2023-03-31T12:22:12;15.10;99.90
34434;DHT22;34290;48.562;13.384;2023-03-31T12:27:13;15.10;99.90
34434;DHT22;34290;48.562;13.384;2023-03-31T12:29:44;15.00;99.90
34434;DHT22;34290;48.562;13.384;2023-03-31T12:32:14;14.90;99.90
34434;DHT22;34290;48.562;13.384;2023-03-31T12:34:47;15.00;99.90
34434;DHT22;34290;48.562;13.384;2023-03-31T12:37:40;14.90;99.90
34434;DHT22;34290;48.562;13.384;2023-03-31T12:40:21;14.80;99.90
34434;DHT22;34290;48.562;13.384;2023-03-31T12:43:29;14.60;99.90
34434;DHT22;34290;48.562;13.384;2023-03-31T12:46:08;14.30;99.90
34434;DHT22;34290;48.562;13.384;2023-03-31T12:48:54;14.20;99.90
34434;DHT22;34290;48.562;13.384;2023-03-31T12:51:42;14.10;99.90
34434;DHT22;34290;48.562;13.384;2023-03-31T12:54:25;13.90;99.90
34434;DHT22;34290;48.562;13.384;2023-03-31T12:57:13;13.80;99.90
34434;DHT22;34290;48.562;13.384;2023-03-31T12:59:42;13.70;99.90
34434;DHT22;34290;48.562;13.384;2023-03-31T13:02:24;13.60;99.90
34434;DHT22;34290;48.562;13.384;2023-03-31T13:04:51;13.50;99.90
34434;DHT22;34290;48.562;13.384;2023-03-31T13:07:40;13.20;99.90
34434;DHT22;34290;48.562;13.384;2023-03-31T13:10:26;12.60;99.90
34434;DHT22;34290;48.562;13.384;2023-03-31T13:13:01;12.20;99.90
34434;DHT22;34290;48.562;13.384;2023-03-31T13:15:29;12.00;99.90
34434;DHT22;34290;48.562;13.384;2023-03-31T13:17:57;11.90;99.90
34434;DHT22;34290;48.562;13.384;2023-03-31T13:20:33;12.00;99.90
34434;DHT22;34290;48.562;13.384;2023-03-31T13:23:16;12.10;99.90
34434;DHT22;34290;48.562;13.384;2023-03-31T13:25:49;12.20;99.90
34434;DHT22;34290;48.562;13.384;2023-03-31T13:28:27;12.30;99.90
34434;DHT22;34290;48.562;13.384;2023-03-31T13:30:58;12.20;99.90
34434;DHT22;34290;48.562;13.384;2023-03-31T13:33:50;12.20;99.90
34434;DHT22;34290;48.562;13.384;2023-03-31T13:36:47;12.20;99.90
34434;DHT22;34290;48.562;13.384;2023-03-31T13:39:43;12.10;99.90
34434;DHT22;34290;48.562;13.384;2023-03-31T13:42:26;12.10;99.90
34434;DHT22;34290;48.562;13.384;2023-03-31T13:45:15;12.00;99.90
34434;DHT22;34290;48.562;13.384;2023-03-31T13:47:58;12.00;99.90
34434;DHT22;34290;48.562;13.384;2023-03-31T13:50:56;12.00;99.90
34434;DHT22;34290;48.562;13.384;2023-03-31T13:53:35;11.80;99.90
34434;DHT22;34290;48.562;13.384;2023-03-31T13:56:20;11.80;99.90
34434;DHT22;34290;48.562;13.384;2023-03-31T13:59:14;11.70;99.90
34434;DHT22;34290;48.562;13.384;2023-03-31T14:01:55;11.70;99.90
34434;DHT22;34290;48.562;13.384;2023-03-31T14:04:39;11.60;99.90
34434;DHT22;34290;48.562;13.384;2023-03-31T14:07:15;11.50;99.90
34434;DHT22;34290;48.562;13.384;2023-03-31T14:09:44;11.60;99.90
34434;DHT22;34290;48.562;13.384;2023-03-31T14:12:29;11.50;99.90
34434;DHT22;34290;48.562;13.384;2023-03-31T14:14:56;11.60;99.90
34434;DHT22;34290;48.562;13.384;2023-03-31T14:17:26;11.60;99.90
34434;DHT22;34290;48.562;13.384;2023-03-31T14:20:21;11.60;99.90
34434;DHT22;34290;48.562;13.384;2023-03-31T14:22:58;11.50;99.90
34434;DHT22;34290;48.562;13.384;2023-03-31T14:25:38;11.50;99.90
34434;DHT22;34290;48.562;13.384;2023-03-31T14:28:21;11.40;99.90
34434;DHT22;34290;48.562;13.384;2023-03-31T14:30:54;11.40;99.90
34434;DHT22;34290;48.562;13.384;2023-03-31T14:33:34;11.40;99.90
34434;DHT22;34290;48.562;13.384;2023-03-31T14:36:10;11.50;99.90
34434;DHT22;34290;48.562;13.384;2023-03-31T14:38:40;11.40;99.90
34434;DHT22;34290;48.562;13.384;2023-03-31T14:41:16;11.40;99.90
34434;DHT22;34290;48.562;13.384;2023-03-31T14:43:49;11.30;99.90
34434;DHT22;34290;48.562;13.384;2023-03-31T14:46:19;11.30;99.90
34434;DHT22;34290;48.562;13.384;2023-03-31T14:48:47;11.30;99.90
34434;DHT22;34290;48.562;13.384;2023-03-31T14:51:16;11.30;99.90
34434;DHT22;34290;48.562;13.384;2023-03-31T14:53:44;11.30;99.90
34434;DHT22;34290;48.562;13.384;2023-03-31T14:56:13;11.30;99.90
34434;DHT22;34290;48.562;13.384;2023-03-31T14:58:43;11.30;99.90
34434;DHT22;34290;48.562;13.384;2023-03-31T15:01:15;11.30;99.90
34434;DHT22;34290;48.562;13.384;2023-03-31T15:03:43;11.20;99.90
34434;DHT22;34290;48.562;13.384;2023-03-31T15:06:12;11.20;99.90
34434;DHT22;34290;48.562;13.384;2023-03-31T15:08:39;11.20;99.90
34434;DHT22;34290;48.562;13.384;2023-03-31T15:11:09;11.10;99.90
34434;DHT22;34290;48.562;13.384;2023-03-31T15:13:40;11.10;99.90
34434;DHT22;34290;48.562;13.384;2023-03-31T15:16:29;11.10;99.90
34434;DHT22;34290;48.562;13.384;2023-03-31T15:19:04;10.90;99.90
34434;DHT22;34290;48.562;13.384;2023-03-31T15:21:36;10.80;99.90
34434;DHT22;34290;48.562;13.384;2023-03-31T15:24:04;10.70;99.90
34434;DHT22;34290;48.562;13.384;2023-03-31T15:26:33;10.60;99.90
34434;DHT22;34290;48.562;13.384;2023-03-31T15:29:04;10.70;99.90
34434;DHT22;34290;48.562;13.384;2023-03-31T15:31:35;10.70;99.90
34434;DHT22;34290;48.562;13.384;2023-03-31T15:34:17;10.60;99.90
34434;DHT22;34290;48.562;13.384;2023-03-31T15:36:45;10.60;99.90
34434;DHT22;34290;48.562;13.384;2023-03-31T15:39:12;10.60;99.90
34434;DHT22;34290;48.562;13.384;2023-03-31T15:41:41;10.60;99.90
34434;DHT22;34290;48.562;13.384;2023-03-31T15:44:28;10.50;99.90
34434;DHT22;34290;48.562;13.384;2023-03-31T15:47:00;10.50;99.90
34434;DHT22;34290;48.562;13.384;2023-03-31T15:49:28;10.50;99.90
34434;DHT22;34290;48.562;13.384;2023-03-31T15:51:55;10.50;99.90
34434;DHT22;34290;48.562;13.384;2023-03-31T15:54:36;10.40;99.90
34434;DHT22;34290;48.562;13.384;2023-03-31T15:57:03;10.40;99.90
34434;DHT22;34290;48.562;13.384;2023-03-31T15:59:42;10.40;99.90
34434;DHT22;34290;48.562;13.384;2023-03-31T16:02:14;10.40;99.90
34434;DHT22;34290;48.562;13.384;2023-03-31T16:04:42;10.50;99.90
34434;DHT22;34290;48.562;13.384;2023-03-31T16:07:14;10.40;99.90
34434;DHT22;34290;48.562;13.384;2023-03-31T16:09:46;10.40;99.90
34434;DHT22;34290;48.562;13.384;2023-03-31T16:12:19;10.40;99.90
34434;DHT22;34290;48.562;13.384;2023-03-31T16:14:49;10.40;99.90
34434;DHT22;34290;48.562;13.384;2023-03-31T16:17:27;10.40;99.90
34434;DHT22;34290;48.562;13.384;2023-03-31T16:19:58;10.40;99.90
34434;DHT22;34290;48.562;13.384;2023-03-31T16:22:34;10.40;99.90
34434;DHT22;34290;48.562;13.384;2023-03-31T16:25:08;10.40;99.90
34434;DHT22;34290;48.562;13.384;2023-03-31T16:27:39;10.40;99.90
34434;DHT22;34290;48.562;13.384;2023-03-31T16:30:10;10.40;99.90
34434;DHT22;34290;48.562;13.384;2023-03-31T16:32:41;10.30;99.90
34434;DHT22;34290;48.562;13.384;2023-03-31T16:35:23;10.30;99.90
34434;DHT22;34290;48.562;13.384;2023-03-31T16:37:55;10.10;99.90
34434;DHT22;34290;48.562;13.384;2023-03-31T16:40:22;10.10;99.90
34434;DHT22;34290;48.562;13.384;2023-03-31T16:43:06;10.10;99.90
34434;DHT22;34290;48.562;13.384;2023-03-31T16:48:01;9.90;99.90
34434;DHT22;34290;48.562;13.384;2023-03-31T16:50:28;9.90;99.90
34434;DHT22;34290;48.562;13.384;2023-03-31T16:52:56;9.90;99.90
34434;DHT22;34290;48.562;13.384;2023-03-31T16:57:50;9.80;99.90
34434;DHT22;34290;48.562;13.384;2023-03-31T17:00:18;9.80;99.90
34434;DHT22;34290;48.562;13.384;2023-03-31T17:02:45;9.70;99.90
34434;DHT22;34290;48.562;13.384;2023-03-31T17:05:13;9.60;99.90
34434;DHT22;34290;48.562;13.384;2023-03-31T17:07:41;9.60;99.90
34434;DHT22;34290;48.562;13.384;2023-03-31T17:10:10;9.50;99.90
34434;DHT22;34290;48.562;13.384;2023-03-31T17:15:06;9.40;99.90
34434;DHT22;34290;48.562;13.384;2023-03-31T17:17:33;9.40;99.90
34434;DHT22;34290;48.562;13.384;2023-03-31T17:22:30;9.40;99.90
34434;DHT22;34290;48.562;13.384;2023-03-31T17:24:57;9.20;99.90
34434;DHT22;34290;48.562;13.384;2023-03-31T17:27:25;9.10;99.90
34434;DHT22;34290;48.562;13.384;2023-03-31T17:29:52;9.10;99.90
34434;DHT22;34290;48.562;13.384;2023-03-31T17:32:20;9.00;99.90
34434;DHT22;34290;48.562;13.384;2023-03-31T17:34:48;8.90;99.90
34434;DHT22;34290;48.562;13.384;2023-03-31T17:37:15;8.80;99.90
34434;DHT22;34290;48.562;13.384;2023-03-31T17:39:44;8.80;99.90
34434;DHT22;34290;48.562;13.384;2023-03-31T17:42:12;8.70;99.90
34434;DHT22;34290;48.562;13.384;2023-03-31T17:44:39;8.70;99.90
34434;DHT22;34290;48.562;13.384;2023-03-31T17:47:07;8.60;99.90
34434;DHT22;34290;48.562;13.384;2023-03-31T17:49:34;8.60;99.90
34434;DHT22;34290;48.562;13.384;2023-03-31T17:56:57;8.60;99.90
34434;DHT22;34290;48.562;13.384;2023-03-31T17:59:24;8.40;99.90
34434;DHT22;34290;48.562;13.384;2023-03-31T18:04:19;8.70;99.90
34434;DHT22;34290;48.562;13.384;2023-03-31T18:06:46;8.70;99.90
34434;DHT22;34290;48.562;13.384;2023-03-31T18:09:14;8.70;99.90
34434;DHT22;34290;48.562;13.384;2023-03-31T18:11:45;8.60;99.90
34434;DHT22;34290;48.562;13.384;2023-03-31T18:14:13;8.60;99.90
34434;DHT22;34290;48.562;13.384;2023-03-31T18:16:40;8.60;99.90
34434;DHT22;34290;48.562;13.384;2023-03-31T18:21:34;8.30;99.90
34434;DHT22;34290;48.562;13.384;2023-03-31T18:24:01;8.30;99.90
34434;DHT22;34290;48.562;13.384;2023-03-31T18:26:28;8.20;99.90
34434;DHT22;34290;48.562;13.384;2023-03-31T18:31:25;8.00;99.90
34434;DHT22;34290;48.562;13.384;2023-03-31T18:33:52;7.90;99.90
34434;DHT22;34290;48.562;13.384;2023-03-31T18:36:21;7.80;99.90
34434;DHT22;34290;48.562;13.384;2023-03-31T18:38:49;7.70;99.90
34434;DHT22;34290;48.562;13.384;2023-03-31T18:41:16;7.60;99.90
34434;DHT22;34290;48.562;13.384;2023-03-31T18:43:44;7.50;99.90
34434;DHT22;34290;48.562;13.384;2023-03-31T18:46:12;7.50;99.90
34434;DHT22;34290;48.562;13.384;2023-03-31T18:48:41;7.40;99.90